createdAt,value
2023-04-09T00:01:13.183Z,24.35
2023-04-09T00:04:15.760Z,25.58
2023-04-09T00:07:20.197Z,24.85
2023-04-09T00:10:22.751Z,24.40
2023-04-09T00:13:31.960Z,25.13
2023-04-09T00:16:41.407Z,26.90
2023-04-09T00:19:44.046Z,25.48
2023-04-09T00:22:48.477Z,26.23
2023-04-09T00:25:50.984Z,25.90
2023-04-09T00:28:53.754Z,26.23
2023-04-09T00:31:56.599Z,27.08
2023-04-09T00:34:59.161Z,27.30
2023-04-09T00:38:03.047Z,25.67
2023-04-09T00:41:05.808Z,25.98
2023-04-09T00:44:08.384Z,28.20
2023-04-09T00:47:11.064Z,28.15
2023-04-09T00:50:13.620Z,28.98
2023-04-09T00:53:17.494Z,27.80
2023-04-09T00:56:19.978Z,28.73
2023-04-09T00:59:22.601Z,28.25
2023-04-09T01:02:25.363Z,29.05
2023-04-09T01:05:29.452Z,29.80
2023-04-09T01:08:37.317Z,28.20
2023-04-09T01:11:42.940Z,26.48
2023-04-09T01:14:46.724Z,26.50
2023-04-09T01:17:51.638Z,27.77
2023-04-09T01:20:58.390Z,25.55
2023-04-09T01:24:10.692Z,27.70
2023-04-09T01:27:13.205Z,27.25
2023-04-09T01:30:17.545Z,28.55
2023-04-09T01:33:20.926Z,27.20
2023-04-09T01:36:23.483Z,28.92
2023-04-09T01:39:26.352Z,28.80
2023-04-09T01:42:28.984Z,29.33
2023-04-09T01:45:32.930Z,28.17
2023-04-09T01:48:35.416Z,29.38
2023-04-09T01:51:37.898Z,31.70
2023-04-09T01:54:40.393Z,30.52
2023-04-09T01:57:42.916Z,29.70
2023-04-09T02:00:48.329Z,30.85
2023-04-09T02:03:53.257Z,30.17
2023-04-09T02:07:00.031Z,31.92
2023-04-09T02:10:02.649Z,32.60
2023-04-09T02:13:05.761Z,28.95
2023-04-09T02:16:09.677Z,30.75
2023-04-09T02:19:12.233Z,30.75
2023-04-09T02:22:14.825Z,30.88
2023-04-09T02:25:17.350Z,27.83
2023-04-09T02:28:19.893Z,29.63
2023-04-09T02:31:23.865Z,30.02
2023-04-09T02:34:26.432Z,25.48
2023-04-09T02:37:28.947Z,22.63
2023-04-09T02:40:31.483Z,23.70
2023-04-09T02:43:34.059Z,25.65
2023-04-09T02:46:39.058Z,25.67
2023-04-09T02:49:41.649Z,25.33
2023-04-09T02:52:46.588Z,23.88
2023-04-09T02:55:49.163Z,24.58
2023-04-09T02:58:54.260Z,24.48
2023-04-09T03:01:58.453Z,25.45
2023-04-09T03:05:01.258Z,25.45
2023-04-09T03:08:03.831Z,24.55
2023-04-09T03:11:06.417Z,25.40
2023-04-09T03:14:08.996Z,30.48
2023-04-09T03:17:12.868Z,27.15
2023-04-09T03:20:15.422Z,26.77
2023-04-09T03:23:18.028Z,25.15
2023-04-09T03:26:20.710Z,25.58
2023-04-09T03:29:23.249Z,25.73
2023-04-09T03:32:27.150Z,27.23
2023-04-09T03:35:29.790Z,27.00
2023-04-09T03:38:32.330Z,26.10
2023-04-09T03:41:34.844Z,27.30
2023-04-09T03:44:37.396Z,26.63
2023-04-09T03:47:41.360Z,30.30
2023-04-09T03:50:43.903Z,32.55
2023-04-09T03:53:46.403Z,27.75
2023-04-09T03:56:49.968Z,29.55
2023-04-09T03:59:52.553Z,27.10
2023-04-09T04:02:56.634Z,26.42
2023-04-09T04:06:01.347Z,28.83
2023-04-09T04:09:03.860Z,30.05
2023-04-09T04:12:06.674Z,33.10
2023-04-09T04:15:10.055Z,31.83
2023-04-09T04:18:13.905Z,31.95
2023-04-09T04:21:16.633Z,32.53
2023-04-09T04:24:19.125Z,32.10
2023-04-09T04:27:21.638Z,30.95
2023-04-09T04:30:24.274Z,32.00
2023-04-09T04:33:28.215Z,29.48
2023-04-09T04:36:30.979Z,29.17
2023-04-09T04:39:34.009Z,29.50
2023-04-09T04:42:36.618Z,28.02
2023-04-09T04:45:39.191Z,29.25
2023-04-09T04:48:43.127Z,30.40
2023-04-09T04:51:45.685Z,28.58
2023-04-09T04:54:48.207Z,27.60
2023-04-09T04:57:52.241Z,27.88
2023-04-09T05:00:54.780Z,27.60
2023-04-09T05:03:58.694Z,27.98
2023-04-09T05:07:01.415Z,27.95
2023-04-09T05:10:04.110Z,25.83
2023-04-09T05:13:06.675Z,26.75
2023-04-09T05:16:09.276Z,26.58
2023-04-09T05:19:13.205Z,26.77
2023-04-09T05:22:15.781Z,27.55
2023-04-09T05:25:18.430Z,28.50
2023-04-09T05:28:21.003Z,25.52
2023-04-09T05:31:23.779Z,25.02
2023-04-09T05:34:27.964Z,25.95
2023-04-09T05:37:30.685Z,25.80
2023-04-09T05:40:33.277Z,27.60
2023-04-09T05:43:35.785Z,25.80
2023-04-09T05:46:38.264Z,26.35
2023-04-09T05:49:42.119Z,22.38
2023-04-09T05:52:44.635Z,26.63
2023-04-09T05:55:49.066Z,23.92
2023-04-09T05:58:52.012Z,24.48
2023-04-09T06:01:54.581Z,24.50
2023-04-09T06:04:58.512Z,26.10
2023-04-09T06:08:01.499Z,26.27
2023-04-09T06:11:04.727Z,27.98
2023-04-09T06:14:07.273Z,27.88
2023-04-09T06:17:09.772Z,26.02
2023-04-09T06:20:13.739Z,26.08
2023-04-09T06:23:16.314Z,24.13
2023-04-09T06:26:18.889Z,26.48
2023-04-09T06:29:23.755Z,23.10
2023-04-09T06:32:26.913Z,23.38
2023-04-09T06:35:30.931Z,23.08
2023-04-09T06:38:33.505Z,25.42
2023-04-09T06:41:36.284Z,25.33
2023-04-09T06:44:38.848Z,24.45
2023-04-09T06:47:42.501Z,23.95
2023-04-09T06:50:46.561Z,23.98
2023-04-09T06:53:49.696Z,22.95
2023-04-09T06:56:52.505Z,20.70
2023-04-09T06:59:55.074Z,24.95
2023-04-09T07:02:57.783Z,23.15
2023-04-09T07:06:02.041Z,24.17
2023-04-09T07:09:04.793Z,24.05
2023-04-09T07:12:07.369Z,24.33
2023-04-09T07:15:10.199Z,26.58
2023-04-09T07:18:12.729Z,24.02
2023-04-09T07:21:16.873Z,23.45
2023-04-09T07:24:19.367Z,22.45
2023-04-09T07:27:21.960Z,20.23
2023-04-09T07:30:24.536Z,23.20
2023-04-09T07:33:27.104Z,22.33
2023-04-09T07:36:31.677Z,21.80
2023-04-09T07:39:34.537Z,22.90
2023-04-09T07:42:38.183Z,23.73
2023-04-09T07:45:40.748Z,28.45
2023-04-09T07:48:43.352Z,24.80
2023-04-09T07:51:47.218Z,26.25
2023-04-09T07:54:49.775Z,26.05
2023-04-09T07:57:53.244Z,28.52
2023-04-09T08:00:55.861Z,28.67
2023-04-09T08:03:58.627Z,33.03
2023-04-09T08:07:02.649Z,31.48
2023-04-09T08:10:06.361Z,29.00
2023-04-09T08:13:10.186Z,32.38
2023-04-09T08:16:14.500Z,30.65
2023-04-09T08:19:17.155Z,30.70
2023-04-09T08:22:21.240Z,34.05
2023-04-09T08:25:24.032Z,31.77
2023-04-09T08:28:26.642Z,30.48
2023-04-09T08:31:29.206Z,29.50
2023-04-09T08:34:31.780Z,30.40
2023-04-09T08:37:35.678Z,33.80
2023-04-09T08:40:38.298Z,30.55
2023-04-09T08:43:56.131Z,29.27
2023-04-09T08:47:00.100Z,30.92
2023-04-09T08:50:02.623Z,28.30
2023-04-09T08:53:07.201Z,29.55
2023-04-09T08:56:09.771Z,29.92
2023-04-09T08:59:12.259Z,29.55
2023-04-09T09:02:15.030Z,30.63
2023-04-09T09:05:17.630Z,30.55
2023-04-09T09:08:25.800Z,31.65
2023-04-09T09:11:28.927Z,31.27
2023-04-09T09:14:32.469Z,34.80
2023-04-09T09:17:35.625Z,30.50
2023-04-09T09:20:38.469Z,27.85
2023-04-09T09:23:42.847Z,30.13
2023-04-09T09:26:45.520Z,21.55
2023-04-09T09:29:48.100Z,32.92
2023-04-09T09:32:53.155Z,30.88
2023-04-09T09:35:57.615Z,31.92
2023-04-09T09:39:03.767Z,29.55
2023-04-09T09:42:08.342Z,29.90
2023-04-09T09:45:19.182Z,29.63
2023-04-09T09:48:21.667Z,30.35
2023-04-09T09:51:28.200Z,32.67
2023-04-09T09:54:33.244Z,33.23
2023-04-09T09:57:35.816Z,32.35
2023-04-09T10:00:38.467Z,39.83
2023-04-09T10:03:42.248Z,29.17
2023-04-09T10:06:45.384Z,34.47
2023-04-09T10:09:50.710Z,32.78
2023-04-09T10:12:53.241Z,33.42
2023-04-09T10:15:55.837Z,32.63
2023-04-09T10:18:58.963Z,32.47
2023-04-09T10:22:05.608Z,31.08
2023-04-09T10:25:10.545Z,30.98
2023-04-09T10:28:16.412Z,31.75
2023-04-09T10:31:19.040Z,30.77
2023-04-09T10:34:23.250Z,31.67
2023-04-09T10:37:26.434Z,32.28
2023-04-09T10:40:30.389Z,31.85
2023-04-09T10:43:32.900Z,30.90
2023-04-09T10:46:36.280Z,32.17
2023-04-09T10:49:39.367Z,29.27
2023-04-09T10:52:42.144Z,29.02
2023-04-09T10:55:49.863Z,32.53
2023-04-09T10:58:52.537Z,30.35
2023-04-09T11:01:55.311Z,20.40
2023-04-09T11:05:02.056Z,29.90
2023-04-09T11:08:06.647Z,32.20
2023-04-09T11:11:11.449Z,25.08
2023-04-09T11:14:20.439Z,20.08
2023-04-09T11:17:23.118Z,29.60
2023-04-09T11:20:26.496Z,27.13
2023-04-09T11:23:28.998Z,19.95
2023-04-09T11:26:37.654Z,18.60
2023-04-09T11:29:40.522Z,16.65
2023-04-09T11:32:43.116Z,27.38
2023-04-09T11:35:45.785Z,21.92
2023-04-09T11:38:49.195Z,19.70
2023-04-09T11:41:53.238Z,31.95
2023-04-09T11:44:55.836Z,31.60
2023-04-09T11:47:58.519Z,11.02
2023-04-09T11:51:01.503Z,29.75
2023-04-09T11:54:04.158Z,22.08
2023-04-09T11:57:08.071Z,16.00
2023-04-09T12:00:11.962Z,28.70
2023-04-09T12:03:16.289Z,25.00
2023-04-09T12:06:19.419Z,14.00
2023-04-09T12:09:21.944Z,26.10
2023-04-09T12:12:26.343Z,27.80
2023-04-09T12:15:34.745Z,26.10
2023-04-09T12:18:37.416Z,25.77
2023-04-09T12:21:47.181Z,23.90
2023-04-09T12:24:49.692Z,20.88
2023-04-09T12:27:54.068Z,26.70
2023-04-09T12:30:57.601Z,28.10
2023-04-09T12:34:00.461Z,12.68
2023-04-09T12:37:03.025Z,18.30
2023-04-09T12:40:06.480Z,25.08
2023-04-09T12:43:10.476Z,14.02
2023-04-09T12:46:13.031Z,16.92
2023-04-09T12:49:16.699Z,23.63
2023-04-09T12:52:19.435Z,22.80
2023-04-09T12:55:21.932Z,12.77
2023-04-09T12:58:25.865Z,25.38
2023-04-09T13:01:28.445Z,24.67
2023-04-09T13:04:31.296Z,26.88
2023-04-09T13:07:34.001Z,25.08
2023-04-09T13:10:36.839Z,24.08
2023-04-09T13:13:42.639Z,24.90
2023-04-09T13:16:45.329Z,24.05
2023-04-09T13:19:47.915Z,24.45
2023-04-09T13:22:50.916Z,22.92
2023-04-09T13:25:53.473Z,24.48
2023-04-09T13:28:57.528Z,24.27
2023-04-09T13:32:02.473Z,21.65
2023-04-09T13:35:05.370Z,20.15
2023-04-09T13:38:07.916Z,23.00
2023-04-09T13:41:10.553Z,23.88
2023-04-09T13:44:14.483Z,22.10
2023-04-09T13:47:17.664Z,21.27
2023-04-09T13:50:20.290Z,21.55
2023-04-09T13:53:24.185Z,21.85
2023-04-09T13:56:27.409Z,12.80
2023-04-09T13:59:31.355Z,15.15
2023-04-09T14:02:34.073Z,10.52
2023-04-09T14:05:36.707Z,14.45
2023-04-09T14:08:39.205Z,21.27
2023-04-09T14:11:41.734Z,10.88
2023-04-09T14:14:45.728Z,17.40
2023-04-09T14:17:48.283Z,15.55
2023-04-09T14:20:51.064Z,9.98
2023-04-09T14:23:53.636Z,19.08
2023-04-09T14:26:56.745Z,12.80
2023-04-09T14:30:00.689Z,9.20
2023-04-09T14:33:03.267Z,19.08
2023-04-09T14:36:06.272Z,8.93
2023-04-09T14:39:09.022Z,18.27
2023-04-09T14:42:12.505Z,16.50
2023-04-09T14:45:16.540Z,10.48
2023-04-09T14:48:19.115Z,18.08
2023-04-09T14:51:21.687Z,15.75
2023-04-09T14:54:24.229Z,16.15
2023-04-09T14:57:26.768Z,14.48
2023-04-09T15:00:31.373Z,15.57
2023-04-09T15:03:34.233Z,15.52
2023-04-09T15:06:37.055Z,14.30
2023-04-09T15:09:39.574Z,13.73
2023-04-09T15:12:42.134Z,15.73
2023-04-09T15:15:46.293Z,15.82
2023-04-09T15:18:51.285Z,14.88
2023-04-09T15:21:54.001Z,14.13
2023-04-09T15:24:56.532Z,14.30
2023-04-09T15:27:59.526Z,13.25
2023-04-09T15:31:03.693Z,13.68
2023-04-09T15:34:06.910Z,11.20
2023-04-09T15:37:09.435Z,11.93
2023-04-09T15:40:13.120Z,13.30
2023-04-09T15:43:15.722Z,14.02
2023-04-09T15:46:19.695Z,12.52
2023-04-09T15:49:22.843Z,13.10
2023-04-09T15:52:25.765Z,13.15
2023-04-09T15:55:28.367Z,12.70
2023-04-09T15:58:30.887Z,11.43
2023-04-09T16:01:34.889Z,12.25
2023-04-09T16:04:37.539Z,11.30
2023-04-09T16:07:40.285Z,11.57
2023-04-09T16:10:42.881Z,11.93
2023-04-09T16:13:46.081Z,11.40
2023-04-09T16:16:51.166Z,10.95
2023-04-09T16:19:54.011Z,11.80
2023-04-09T16:22:56.607Z,12.20
2023-04-09T16:25:59.279Z,11.93
2023-04-09T16:29:03.992Z,11.15
2023-04-09T16:32:08.139Z,10.77
2023-04-09T16:35:10.953Z,9.40
2023-04-09T16:38:13.543Z,12.32
2023-04-09T16:41:16.152Z,10.88
2023-04-09T16:44:18.668Z,11.30
2023-04-09T16:47:22.581Z,11.13
2023-04-09T16:50:25.264Z,11.05
2023-04-09T16:53:27.784Z,11.82
2023-04-09T16:56:30.452Z,12.77
2023-04-09T16:59:33.444Z,12.18
2023-04-09T17:02:39.297Z,12.43
2023-04-09T17:05:42.013Z,12.32
2023-04-09T17:08:44.519Z,12.00
2023-04-09T17:11:47.119Z,11.57
2023-04-09T17:14:49.967Z,12.48
2023-04-09T17:17:54.057Z,12.48
2023-04-09T17:20:57.009Z,12.52
2023-04-09T17:23:59.652Z,12.02
2023-04-09T17:27:02.223Z,13.15
2023-04-09T17:30:05.442Z,12.98
2023-04-09T17:33:09.426Z,13.20
2023-04-09T17:36:11.991Z,11.55
2023-04-09T17:39:14.591Z,13.18
2023-04-09T17:42:17.119Z,12.73
2023-04-09T17:45:19.824Z,13.38
2023-04-09T17:48:23.696Z,12.32
2023-04-09T17:51:26.950Z,12.38
2023-04-09T17:54:33.352Z,12.18
2023-04-09T17:57:36.417Z,13.63
2023-04-09T18:00:40.208Z,13.45
2023-04-09T18:03:45.560Z,11.85
2023-04-09T18:06:48.419Z,11.98
2023-04-09T18:09:50.980Z,13.48
2023-04-09T18:12:53.504Z,12.15
2023-04-09T18:15:56.554Z,12.90
2023-04-09T18:19:00.434Z,12.05
2023-04-09T18:22:02.957Z,13.40
2023-04-09T18:25:07.009Z,13.18
2023-04-09T18:28:09.760Z,12.48
2023-04-09T18:31:12.412Z,12.20
2023-04-09T18:34:16.697Z,12.60
2023-04-09T18:37:19.290Z,12.35
2023-04-09T18:40:21.976Z,13.48
2023-04-09T18:43:24.500Z,13.68
2023-04-09T18:46:27.152Z,13.55
2023-04-09T18:49:31.037Z,13.35
2023-04-09T18:52:33.605Z,12.82
2023-04-09T18:55:37.936Z,13.43
2023-04-09T18:58:41.069Z,13.20
2023-04-09T19:01:43.668Z,13.02
2023-04-09T19:04:47.753Z,13.35
2023-04-09T19:07:50.556Z,13.23
2023-04-09T19:10:53.543Z,13.38
2023-04-09T19:13:56.044Z,14.20
2023-04-09T19:16:58.892Z,13.82
2023-04-09T19:20:02.795Z,12.93
2023-04-09T19:23:06.542Z,14.75
2023-04-09T19:26:09.683Z,15.23
2023-04-09T19:29:12.264Z,15.07
2023-04-09T19:32:14.872Z,15.10
2023-04-09T19:35:18.803Z,14.48
2023-04-09T19:38:21.596Z,14.77
2023-04-09T19:41:24.132Z,13.60
2023-04-09T19:44:26.697Z,13.57
2023-04-09T19:47:29.286Z,14.15
2023-04-09T19:50:35.387Z,13.60
2023-04-09T19:53:39.108Z,14.13
2023-04-09T19:56:42.416Z,15.77
2023-04-09T19:59:44.997Z,15.43
2023-04-09T20:02:47.635Z,14.73
2023-04-09T20:05:51.720Z,15.13
2023-04-09T20:08:55.902Z,14.93
2023-04-09T20:12:04.112Z,14.98
2023-04-09T20:15:09.822Z,14.77
2023-04-09T20:18:12.972Z,14.52
2023-04-09T20:21:16.863Z,13.07
2023-04-09T20:24:19.489Z,14.15
2023-04-09T20:27:22.492Z,14.35
2023-04-09T20:30:25.011Z,13.77
2023-04-09T20:33:27.707Z,14.40
2023-04-09T20:36:31.607Z,14.23
2023-04-09T20:39:34.211Z,14.73
2023-04-09T20:42:36.744Z,14.48
2023-04-09T20:45:39.405Z,12.48
2023-04-09T20:48:42.324Z,13.00
2023-04-09T20:51:46.243Z,14.20
2023-04-09T20:54:48.763Z,14.18
2023-04-09T20:57:51.777Z,13.48
2023-04-09T21:01:03.587Z,14.63
2023-04-09T21:04:06.507Z,13.40
2023-04-09T21:07:10.440Z,14.68
2023-04-09T21:10:13.117Z,14.18
2023-04-09T21:13:15.619Z,13.30
2023-04-09T21:16:18.155Z,12.88
2023-04-09T21:19:20.810Z,13.73
2023-04-09T21:22:26.559Z,13.68
2023-04-09T21:25:29.284Z,14.80
2023-04-09T21:28:31.812Z,14.23
2023-04-09T21:31:35.523Z,13.13
2023-04-09T21:34:39.486Z,13.35
2023-04-09T21:37:43.371Z,14.77
2023-04-09T21:40:46.633Z,11.68
2023-04-09T21:43:49.167Z,12.73
2023-04-09T21:46:52.134Z,12.00
2023-04-09T21:49:54.639Z,12.48
2023-04-09T21:52:58.547Z,13.02
2023-04-09T21:56:03.461Z,13.45
2023-04-09T21:59:07.280Z,13.07
2023-04-09T22:02:10.013Z,12.45
2023-04-09T22:05:12.775Z,12.48
2023-04-09T22:08:16.728Z,13.13
2023-04-09T22:11:19.785Z,12.75
2023-04-09T22:14:22.481Z,11.65
2023-04-09T22:17:25.089Z,13.05
2023-04-09T22:20:27.668Z,12.60
2023-04-09T22:23:31.604Z,11.45
2023-04-09T22:26:34.176Z,12.25
2023-04-09T22:29:37.022Z,12.40
2023-04-09T22:32:39.540Z,12.02
2023-04-09T22:35:42.111Z,12.00
2023-04-09T22:38:46.093Z,13.13
2023-04-09T22:41:48.679Z,12.88
2023-04-09T22:44:51.213Z,11.95
2023-04-09T22:47:53.759Z,12.45
2023-04-09T22:50:57.636Z,12.48
2023-04-09T22:54:01.793Z,10.57
2023-04-09T22:57:04.532Z,11.23
2023-04-09T23:00:08.963Z,12.82
2023-04-09T23:03:11.622Z,13.23
2023-04-09T23:06:14.276Z,13.52
2023-04-09T23:09:18.202Z,13.75
2023-04-09T23:12:20.800Z,13.73
2023-04-09T23:15:23.494Z,13.60
2023-04-09T23:18:26.062Z,13.43
2023-04-09T23:21:28.844Z,13.25
2023-04-09T23:24:32.749Z,12.55
2023-04-09T23:27:35.252Z,15.07
2023-04-09T23:30:37.801Z,13.82
2023-04-09T23:33:40.304Z,14.20
2023-04-09T23:36:42.859Z,13.18
2023-04-09T23:39:47.143Z,13.13
2023-04-09T23:42:50.201Z,11.85
2023-04-09T23:45:52.756Z,11.82
2023-04-09T23:48:55.385Z,13.32
2023-04-09T23:51:57.868Z,12.63
2023-04-09T23:55:01.696Z,13.23
2023-04-09T23:58:04.448Z,12.18
